sensor_id;sensor_type;location;lat;lon;timestamp;P1;durP1;ratioP1;P2;durP2;ratioP2
12359;SDS011;6244;51.460;7.090;2022-10-15T00:00:35;1120.85;;;668.38;;
12359;SDS011;6244;51.460;7.090;2022-10-15T00:05:35;1121.07;;;665.70;;
12359;SDS011;6244;51.460;7.090;2022-10-15T00:10:33;1124.97;;;696.90;;
12359;SDS011;6244;51.460;7.090;2022-10-15T00:15:30;1123.75;;;693.47;;
12359;SDS011;6244;51.460;7.090;2022-10-15T00:20:26;1125.43;;;685.70;;
12359;SDS011;6244;51.460;7.090;2022-10-15T00:25:23;1130.35;;;695.55;;
12359;SDS011;6244;51.460;7.090;2022-10-15T00:30:20;1126.70;;;688.80;;
12359;SDS011;6244;51.460;7.090;2022-10-15T00:35:17;1125.53;;;682.10;;
12359;SDS011;6244;51.460;7.090;2022-10-15T00:40:13;1128.80;;;697.80;;
12359;SDS011;6244;51.460;7.090;2022-10-15T00:45:11;1125.53;;;690.55;;
12359;SDS011;6244;51.460;7.090;2022-10-15T00:50:11;1127.40;;;683.87;;
12359;SDS011;6244;51.460;7.090;2022-10-15T00:55:11;1125.47;;;680.88;;
12359;SDS011;6244;51.460;7.090;2022-10-15T01:00:12;1132.63;;;713.83;;
12359;SDS011;6244;51.460;7.090;2022-10-15T01:05:11;1133.78;;;714.25;;
12359;SDS011;6244;51.460;7.090;2022-10-15T01:10:10;1130.75;;;711.38;;
12359;SDS011;6244;51.460;7.090;2022-10-15T01:15:08;1128.20;;;711.20;;
12359;SDS011;6244;51.460;7.090;2022-10-15T01:25:41;1131.05;;;714.47;;
12359;SDS011;6244;51.460;7.090;2022-10-15T01:30:53;1130.73;;;718.83;;
12359;SDS011;6244;51.460;7.090;2022-10-15T01:35:57;1132.50;;;716.13;;
12359;SDS011;6244;51.460;7.090;2022-10-15T01:41:02;1127.07;;;704.92;;
12359;SDS011;6244;51.460;7.090;2022-10-15T01:46:07;1129.97;;;710.50;;
12359;SDS011;6244;51.460;7.090;2022-10-15T01:51:09;1126.43;;;695.58;;
12359;SDS011;6244;51.460;7.090;2022-10-15T01:56:08;1127.57;;;699.03;;
12359;SDS011;6244;51.460;7.090;2022-10-15T02:01:10;1128.32;;;704.50;;
12359;SDS011;6244;51.460;7.090;2022-10-15T02:06:07;1128.93;;;698.92;;
12359;SDS011;6244;51.460;7.090;2022-10-15T02:11:09;1129.00;;;689.13;;
12359;SDS011;6244;51.460;7.090;2022-10-15T02:16:11;1131.28;;;702.80;;
12359;SDS011;6244;51.460;7.090;2022-10-15T02:21:13;1132.45;;;704.85;;
12359;SDS011;6244;51.460;7.090;2022-10-15T02:26:14;1133.10;;;709.20;;
12359;SDS011;6244;51.460;7.090;2022-10-15T02:31:13;1132.87;;;700.50;;
12359;SDS011;6244;51.460;7.090;2022-10-15T02:36:12;1132.27;;;706.80;;
12359;SDS011;6244;51.460;7.090;2022-10-15T02:41:10;1131.65;;;699.83;;
12359;SDS011;6244;51.460;7.090;2022-10-15T02:46:08;1131.57;;;701.83;;
12359;SDS011;6244;51.460;7.090;2022-10-15T02:51:08;1134.80;;;710.05;;
12359;SDS011;6244;51.460;7.090;2022-10-15T02:56:05;1132.95;;;694.65;;
12359;SDS011;6244;51.460;7.090;2022-10-15T03:01:02;1138.43;;;688.75;;
12359;SDS011;6244;51.460;7.090;2022-10-15T03:05:59;1136.35;;;687.85;;
12359;SDS011;6244;51.460;7.090;2022-10-15T03:10:56;1138.63;;;688.33;;
12359;SDS011;6244;51.460;7.090;2022-10-15T03:15:54;1135.18;;;674.45;;
12359;SDS011;6244;51.460;7.090;2022-10-15T03:20:52;1134.03;;;667.05;;
12359;SDS011;6244;51.460;7.090;2022-10-15T03:25:49;1137.43;;;675.45;;
12359;SDS011;6244;51.460;7.090;2022-10-15T03:30:47;1139.70;;;686.00;;
12359;SDS011;6244;51.460;7.090;2022-10-15T03:35:44;1139.18;;;675.35;;
12359;SDS011;6244;51.460;7.090;2022-10-15T03:40:41;1136.03;;;674.03;;
12359;SDS011;6244;51.460;7.090;2022-10-15T03:45:38;1136.60;;;659.40;;
12359;SDS011;6244;51.460;7.090;2022-10-15T03:50:36;1136.05;;;659.90;;
12359;SDS011;6244;51.460;7.090;2022-10-15T03:55:33;1135.88;;;665.80;;
12359;SDS011;6244;51.460;7.090;2022-10-15T04:00:29;1139.53;;;668.30;;
12359;SDS011;6244;51.460;7.090;2022-10-15T04:05:26;1136.75;;;664.08;;
12359;SDS011;6244;51.460;7.090;2022-10-15T04:10:24;1134.73;;;664.17;;
12359;SDS011;6244;51.460;7.090;2022-10-15T04:15:20;1137.22;;;664.00;;
12359;SDS011;6244;51.460;7.090;2022-10-15T04:20:16;1134.63;;;658.20;;
12359;SDS011;6244;51.460;7.090;2022-10-15T04:25:13;1133.82;;;661.08;;
12359;SDS011;6244;51.460;7.090;2022-10-15T04:30:12;1137.03;;;672.72;;
12359;SDS011;6244;51.460;7.090;2022-10-15T04:35:08;1133.40;;;665.10;;
12359;SDS011;6244;51.460;7.090;2022-10-15T04:40:05;1134.23;;;662.50;;
12359;SDS011;6244;51.460;7.090;2022-10-15T04:45:04;1133.30;;;660.08;;
12359;SDS011;6244;51.460;7.090;2022-10-15T04:50:03;1136.50;;;674.57;;
12359;SDS011;6244;51.460;7.090;2022-10-15T04:55:00;1133.25;;;678.25;;
12359;SDS011;6244;51.460;7.090;2022-10-15T04:59:58;1133.65;;;688.45;;
12359;SDS011;6244;51.460;7.090;2022-10-15T05:04:55;1135.55;;;676.08;;
12359;SDS011;6244;51.460;7.090;2022-10-15T05:09:53;1132.10;;;669.08;;
12359;SDS011;6244;51.460;7.090;2022-10-15T05:14:49;1136.85;;;676.22;;
12359;SDS011;6244;51.460;7.090;2022-10-15T05:19:45;1135.80;;;676.92;;
12359;SDS011;6244;51.460;7.090;2022-10-15T05:24:42;1135.23;;;676.47;;
12359;SDS011;6244;51.460;7.090;2022-10-15T05:29:40;1138.28;;;673.80;;
12359;SDS011;6244;51.460;7.090;2022-10-15T05:34:36;1135.53;;;686.88;;
12359;SDS011;6244;51.460;7.090;2022-10-15T05:39:33;1135.95;;;697.03;;
12359;SDS011;6244;51.460;7.090;2022-10-15T05:44:29;1138.75;;;684.33;;
12359;SDS011;6244;51.460;7.090;2022-10-15T05:49:34;1134.70;;;673.20;;
12359;SDS011;6244;51.460;7.090;2022-10-15T05:54:31;1137.47;;;674.10;;
12359;SDS011;6244;51.460;7.090;2022-10-15T05:59:27;1135.25;;;672.88;;
12359;SDS011;6244;51.460;7.090;2022-10-15T06:04:24;1138.07;;;676.67;;
12359;SDS011;6244;51.460;7.090;2022-10-15T06:09:22;1138.25;;;686.30;;
12359;SDS011;6244;51.460;7.090;2022-10-15T06:14:18;1135.63;;;684.13;;
12359;SDS011;6244;51.460;7.090;2022-10-15T06:19:15;1139.40;;;670.72;;
12359;SDS011;6244;51.460;7.090;2022-10-15T06:24:12;1136.60;;;660.38;;
12359;SDS011;6244;51.460;7.090;2022-10-15T06:29:10;1140.40;;;674.33;;
12359;SDS011;6244;51.460;7.090;2022-10-15T06:34:06;1136.18;;;677.70;;
12359;SDS011;6244;51.460;7.090;2022-10-15T06:39:03;1137.07;;;682.08;;
12359;SDS011;6244;51.460;7.090;2022-10-15T06:43:59;1136.10;;;674.50;;
12359;SDS011;6244;51.460;7.090;2022-10-15T06:48:57;1132.90;;;661.90;;
12359;SDS011;6244;51.460;7.090;2022-10-15T06:53:53;1135.25;;;667.22;;
12359;SDS011;6244;51.460;7.090;2022-10-15T06:58:50;1132.67;;;671.57;;
12359;SDS011;6244;51.460;7.090;2022-10-15T07:03:47;1131.30;;;667.92;;
12359;SDS011;6244;51.460;7.090;2022-10-15T07:08:45;1134.88;;;683.97;;
12359;SDS011;6244;51.460;7.090;2022-10-15T07:13:42;1135.53;;;692.75;;
12359;SDS011;6244;51.460;7.090;2022-10-15T07:18:38;1136.63;;;703.77;;
12359;SDS011;6244;51.460;7.090;2022-10-15T07:23:35;1132.60;;;716.07;;
12359;SDS011;6244;51.460;7.090;2022-10-15T07:28:33;1131.25;;;698.55;;
12359;SDS011;6244;51.460;7.090;2022-10-15T07:33:29;1135.43;;;695.67;;
12359;SDS011;6244;51.460;7.090;2022-10-15T07:38:28;1133.25;;;674.47;;
12359;SDS011;6244;51.460;7.090;2022-10-15T07:43:24;1137.47;;;688.47;;
12359;SDS011;6244;51.460;7.090;2022-10-15T07:48:23;1137.80;;;698.55;;
12359;SDS011;6244;51.460;7.090;2022-10-15T07:53:20;1133.90;;;685.97;;
12359;SDS011;6244;51.460;7.090;2022-10-15T07:58:16;1138.47;;;696.85;;
12359;SDS011;6244;51.460;7.090;2022-10-15T08:03:13;1138.57;;;690.58;;
12359;SDS011;6244;51.460;7.090;2022-10-15T08:08:11;1137.20;;;717.15;;
12359;SDS011;6244;51.460;7.090;2022-10-15T08:13:07;1141.82;;;724.17;;
12359;SDS011;6244;51.460;7.090;2022-10-15T08:18:04;1147.38;;;729.55;;
12359;SDS011;6244;51.460;7.090;2022-10-15T08:23:00;1158.73;;;764.20;;
12359;SDS011;6244;51.460;7.090;2022-10-15T08:27:59;1153.53;;;785.55;;
12359;SDS011;6244;51.460;7.090;2022-10-15T08:32:55;1152.53;;;785.03;;
12359;SDS011;6244;51.460;7.090;2022-10-15T08:37:52;1146.87;;;777.17;;
12359;SDS011;6244;51.460;7.090;2022-10-15T08:42:49;1149.05;;;765.90;;
12359;SDS011;6244;51.460;7.090;2022-10-15T08:47:49;1157.43;;;794.03;;
12359;SDS011;6244;51.460;7.090;2022-10-15T08:52:48;1157.18;;;841.25;;
12359;SDS011;6244;51.460;7.090;2022-10-15T08:57:46;1148.70;;;827.40;;
12359;SDS011;6244;51.460;7.090;2022-10-15T09:02:51;1147.93;;;842.05;;
12359;SDS011;6244;51.460;7.090;2022-10-15T09:07:53;1150.93;;;818.80;;
12359;SDS011;6244;51.460;7.090;2022-10-15T09:12:57;1155.83;;;801.03;;
12359;SDS011;6244;51.460;7.090;2022-10-15T09:17:58;1152.40;;;792.08;;
12359;SDS011;6244;51.460;7.090;2022-10-15T09:22:54;1148.07;;;786.55;;
12359;SDS011;6244;51.460;7.090;2022-10-15T09:27:51;1149.32;;;786.40;;
12359;SDS011;6244;51.460;7.090;2022-10-15T09:32:49;1151.13;;;811.83;;
12359;SDS011;6244;51.460;7.090;2022-10-15T09:37:53;1146.20;;;839.17;;
12359;SDS011;6244;51.460;7.090;2022-10-15T09:42:56;1150.57;;;840.60;;
12359;SDS011;6244;51.460;7.090;2022-10-15T09:47:56;1146.23;;;856.33;;
12359;SDS011;6244;51.460;7.090;2022-10-15T09:52:59;1137.35;;;865.38;;
12359;SDS011;6244;51.460;7.090;2022-10-15T09:58:07;1143.07;;;865.00;;
12359;SDS011;6244;51.460;7.090;2022-10-15T10:03:13;1146.43;;;862.78;;
12359;SDS011;6244;51.460;7.090;2022-10-15T10:08:15;1151.68;;;831.28;;
12359;SDS011;6244;51.460;7.090;2022-10-15T10:13:21;1153.47;;;822.60;;
12359;SDS011;6244;51.460;7.090;2022-10-15T10:18:19;1152.32;;;786.58;;
12359;SDS011;6244;51.460;7.090;2022-10-15T10:23:23;1153.18;;;813.67;;
12359;SDS011;6244;51.460;7.090;2022-10-15T10:28:25;1149.55;;;807.42;;
12359;SDS011;6244;51.460;7.090;2022-10-15T10:33:26;1143.95;;;788.50;;
12359;SDS011;6244;51.460;7.090;2022-10-15T10:38:27;1146.25;;;797.58;;
12359;SDS011;6244;51.460;7.090;2022-10-15T10:43:27;1147.28;;;800.20;;
12359;SDS011;6244;51.460;7.090;2022-10-15T10:48:26;1145.10;;;789.00;;
12359;SDS011;6244;51.460;7.090;2022-10-15T10:53:24;1143.95;;;794.92;;
12359;SDS011;6244;51.460;7.090;2022-10-15T10:58:22;1143.25;;;793.80;;
12359;SDS011;6244;51.460;7.090;2022-10-15T11:03:21;1148.80;;;804.13;;
12359;SDS011;6244;51.460;7.090;2022-10-15T11:08:25;1145.53;;;768.13;;
12359;SDS011;6244;51.460;7.090;2022-10-15T11:13:31;1146.25;;;765.80;;
12359;SDS011;6244;51.460;7.090;2022-10-15T11:18:47;1145.77;;;775.80;;
12359;SDS011;6244;51.460;7.090;2022-10-15T11:24:04;1142.40;;;774.70;;
12359;SDS011;6244;51.460;7.090;2022-10-15T11:29:10;1141.10;;;775.85;;
12359;SDS011;6244;51.460;7.090;2022-10-15T11:34:17;1139.40;;;770.03;;
12359;SDS011;6244;51.460;7.090;2022-10-15T11:39:29;1140.50;;;780.75;;
12359;SDS011;6244;51.460;7.090;2022-10-15T11:44:41;1138.57;;;765.65;;
12359;SDS011;6244;51.460;7.090;2022-10-15T11:49:58;1136.00;;;754.70;;
12359;SDS011;6244;51.460;7.090;2022-10-15T11:55:09;1136.38;;;762.45;;
12359;SDS011;6244;51.460;7.090;2022-10-15T12:00:14;1133.97;;;760.97;;
12359;SDS011;6244;51.460;7.090;2022-10-15T12:05:23;1136.43;;;767.83;;
12359;SDS011;6244;51.460;7.090;2022-10-15T12:10:34;1133.97;;;761.55;;
12359;SDS011;6244;51.460;7.090;2022-10-15T12:15:46;1135.10;;;758.97;;
12359;SDS011;6244;51.460;7.090;2022-10-15T12:20:50;1136.80;;;764.92;;
12359;SDS011;6244;51.460;7.090;2022-10-15T12:25:49;1133.85;;;761.38;;
12359;SDS011;6244;51.460;7.090;2022-10-15T12:30:54;1137.25;;;764.35;;
12359;SDS011;6244;51.460;7.090;2022-10-15T12:35:53;1143.00;;;783.45;;
12359;SDS011;6244;51.460;7.090;2022-10-15T12:40:55;1145.03;;;778.33;;
12359;SDS011;6244;51.460;7.090;2022-10-15T12:45:57;1142.13;;;771.05;;
12359;SDS011;6244;51.460;7.090;2022-10-15T12:56:36;1138.28;;;764.90;;
12359;SDS011;6244;51.460;7.090;2022-10-15T13:06:47;1141.90;;;769.80;;
12359;SDS011;6244;51.460;7.090;2022-10-15T13:11:44;1140.50;;;761.97;;
12359;SDS011;6244;51.460;7.090;2022-10-15T13:16:42;1137.40;;;761.60;;
12359;SDS011;6244;51.460;7.090;2022-10-15T13:21:49;1138.63;;;765.83;;
12359;SDS011;6244;51.460;7.090;2022-10-15T13:26:48;1139.67;;;773.93;;
12359;SDS011;6244;51.460;7.090;2022-10-15T13:31:45;1143.10;;;776.17;;
12359;SDS011;6244;51.460;7.090;2022-10-15T13:36:43;1138.85;;;774.10;;
12359;SDS011;6244;51.460;7.090;2022-10-15T13:41:41;1142.25;;;778.22;;
12359;SDS011;6244;51.460;7.090;2022-10-15T13:46:37;1139.20;;;772.70;;
12359;SDS011;6244;51.460;7.090;2022-10-15T13:51:37;1145.93;;;793.67;;
12359;SDS011;6244;51.460;7.090;2022-10-15T13:56:36;1144.72;;;790.67;;
12359;SDS011;6244;51.460;7.090;2022-10-15T14:01:43;1145.75;;;791.72;;
12359;SDS011;6244;51.460;7.090;2022-10-15T14:06:41;1141.78;;;784.35;;
12359;SDS011;6244;51.460;7.090;2022-10-15T14:11:48;1138.17;;;780.30;;
12359;SDS011;6244;51.460;7.090;2022-10-15T14:16:46;1142.80;;;796.30;;
12359;SDS011;6244;51.460;7.090;2022-10-15T14:21:43;1139.03;;;785.85;;
12359;SDS011;6244;51.460;7.090;2022-10-15T14:26:46;1138.72;;;774.67;;
12359;SDS011;6244;51.460;7.090;2022-10-15T14:31:44;1134.45;;;761.38;;
12359;SDS011;6244;51.460;7.090;2022-10-15T14:36:43;1134.10;;;754.23;;
12359;SDS011;6244;51.460;7.090;2022-10-15T14:41:39;1137.17;;;769.27;;
12359;SDS011;6244;51.460;7.090;2022-10-15T14:46:50;1136.10;;;764.47;;
12359;SDS011;6244;51.460;7.090;2022-10-15T14:51:58;1139.10;;;782.22;;
12359;SDS011;6244;51.460;7.090;2022-10-15T14:56:59;1141.97;;;791.20;;
12359;SDS011;6244;51.460;7.090;2022-10-15T15:01:57;1135.77;;;768.70;;
12359;SDS011;6244;51.460;7.090;2022-10-15T15:07:00;1142.18;;;778.25;;
12359;SDS011;6244;51.460;7.090;2022-10-15T15:11:57;1141.00;;;779.70;;
12359;SDS011;6244;51.460;7.090;2022-10-15T15:16:53;1139.83;;;760.27;;
12359;SDS011;6244;51.460;7.090;2022-10-15T15:21:50;1138.90;;;754.80;;
12359;SDS011;6244;51.460;7.090;2022-10-15T15:26:48;1137.10;;;744.28;;
12359;SDS011;6244;51.460;7.090;2022-10-15T15:31:44;1144.00;;;772.17;;
12359;SDS011;6244;51.460;7.090;2022-10-15T15:36:41;1140.57;;;767.30;;
12359;SDS011;6244;51.460;7.090;2022-10-15T15:41:37;1137.63;;;759.10;;
12359;SDS011;6244;51.460;7.090;2022-10-15T15:46:35;1135.25;;;757.05;;
12359;SDS011;6244;51.460;7.090;2022-10-15T15:51:31;1132.00;;;752.05;;
12359;SDS011;6244;51.460;7.090;2022-10-15T15:56:28;1134.40;;;762.20;;
12359;SDS011;6244;51.460;7.090;2022-10-15T16:01:24;1132.35;;;762.55;;
12359;SDS011;6244;51.460;7.090;2022-10-15T16:06:22;1131.80;;;760.27;;
12359;SDS011;6244;51.460;7.090;2022-10-15T16:11:19;1129.70;;;749.13;;
12359;SDS011;6244;51.460;7.090;2022-10-15T16:16:15;1130.72;;;755.05;;
12359;SDS011;6244;51.460;7.090;2022-10-15T16:21:12;1130.93;;;752.65;;
12359;SDS011;6244;51.460;7.090;2022-10-15T16:26:10;1134.78;;;766.67;;
12359;SDS011;6244;51.460;7.090;2022-10-15T16:31:13;1130.90;;;756.15;;
12359;SDS011;6244;51.460;7.090;2022-10-15T16:36:10;1133.65;;;761.53;;
12359;SDS011;6244;51.460;7.090;2022-10-15T16:41:07;1131.68;;;757.97;;
12359;SDS011;6244;51.460;7.090;2022-10-15T16:46:06;1132.80;;;760.23;;
12359;SDS011;6244;51.460;7.090;2022-10-15T16:51:04;1134.22;;;768.85;;
12359;SDS011;6244;51.460;7.090;2022-10-15T16:56:03;1134.03;;;766.22;;
12359;SDS011;6244;51.460;7.090;2022-10-15T17:01:04;1139.85;;;744.85;;
12359;SDS011;6244;51.460;7.090;2022-10-15T17:06:02;1133.40;;;757.05;;
12359;SDS011;6244;51.460;7.090;2022-10-15T17:11:01;1137.53;;;739.97;;
12359;SDS011;6244;51.460;7.090;2022-10-15T17:16:07;1134.20;;;759.70;;
12359;SDS011;6244;51.460;7.090;2022-10-15T17:21:06;1132.70;;;756.25;;
12359;SDS011;6244;51.460;7.090;2022-10-15T17:26:04;1132.85;;;762.42;;
12359;SDS011;6244;51.460;7.090;2022-10-15T17:31:03;1133.50;;;769.78;;
12359;SDS011;6244;51.460;7.090;2022-10-15T17:36:03;1133.35;;;767.45;;
12359;SDS011;6244;51.460;7.090;2022-10-15T17:41:04;1133.82;;;770.15;;
12359;SDS011;6244;51.460;7.090;2022-10-15T17:46:02;1133.85;;;774.30;;
12359;SDS011;6244;51.460;7.090;2022-10-15T17:51:00;1133.75;;;776.33;;
12359;SDS011;6244;51.460;7.090;2022-10-15T17:56:08;1132.20;;;766.60;;
12359;SDS011;6244;51.460;7.090;2022-10-15T18:01:05;1129.28;;;761.33;;
12359;SDS011;6244;51.460;7.090;2022-10-15T18:06:07;1129.27;;;753.57;;
12359;SDS011;6244;51.460;7.090;2022-10-15T18:11:05;1126.97;;;737.85;;
12359;SDS011;6244;51.460;7.090;2022-10-15T18:16:03;1134.45;;;758.08;;
12359;SDS011;6244;51.460;7.090;2022-10-15T18:21:00;1136.75;;;733.78;;
12359;SDS011;6244;51.460;7.090;2022-10-15T18:26:02;1139.38;;;736.83;;
12359;SDS011;6244;51.460;7.090;2022-10-15T18:31:00;1139.83;;;738.07;;
12359;SDS011;6244;51.460;7.090;2022-10-15T18:36:03;1138.45;;;735.67;;
12359;SDS011;6244;51.460;7.090;2022-10-15T18:41:01;1137.68;;;744.15;;
12359;SDS011;6244;51.460;7.090;2022-10-15T18:46:00;1138.83;;;742.97;;
12359;SDS011;6244;51.460;7.090;2022-10-15T18:50:57;1137.53;;;730.38;;
12359;SDS011;6244;51.460;7.090;2022-10-15T18:55:55;1135.90;;;727.22;;
12359;SDS011;6244;51.460;7.090;2022-10-15T19:00:53;1138.37;;;735.77;;
12359;SDS011;6244;51.460;7.090;2022-10-15T19:05:49;1137.43;;;724.75;;
12359;SDS011;6244;51.460;7.090;2022-10-15T19:10:46;1134.83;;;722.40;;
12359;SDS011;6244;51.460;7.090;2022-10-15T19:15:42;1133.97;;;720.28;;
12359;SDS011;6244;51.460;7.090;2022-10-15T19:20:40;1136.30;;;732.35;;
12359;SDS011;6244;51.460;7.090;2022-10-15T19:25:39;1134.00;;;721.60;;
12359;SDS011;6244;51.460;7.090;2022-10-15T19:30:36;1133.23;;;723.70;;
12359;SDS011;6244;51.460;7.090;2022-10-15T19:35:36;1132.13;;;725.10;;
12359;SDS011;6244;51.460;7.090;2022-10-15T19:40:36;1132.23;;;719.97;;
12359;SDS011;6244;51.460;7.090;2022-10-15T19:45:35;1131.60;;;721.83;;
12359;SDS011;6244;51.460;7.090;2022-10-15T19:50:34;1131.17;;;722.37;;
12359;SDS011;6244;51.460;7.090;2022-10-15T19:55:32;1130.78;;;720.90;;
12359;SDS011;6244;51.460;7.090;2022-10-15T20:00:30;1131.30;;;722.95;;
12359;SDS011;6244;51.460;7.090;2022-10-15T20:05:27;1131.53;;;714.13;;
12359;SDS011;6244;51.460;7.090;2022-10-15T20:10:23;1125.43;;;708.00;;
12359;SDS011;6244;51.460;7.090;2022-10-15T20:15:20;1129.25;;;704.35;;
12359;SDS011;6244;51.460;7.090;2022-10-15T20:20:18;1133.15;;;712.30;;
12359;SDS011;6244;51.460;7.090;2022-10-15T20:25:14;1132.30;;;721.47;;
12359;SDS011;6244;51.460;7.090;2022-10-15T20:30:11;1128.65;;;713.08;;
12359;SDS011;6244;51.460;7.090;2022-10-15T20:35:08;1129.85;;;719.08;;
12359;SDS011;6244;51.460;7.090;2022-10-15T20:40:07;1132.07;;;723.87;;
12359;SDS011;6244;51.460;7.090;2022-10-15T20:45:04;1129.95;;;719.60;;
12359;SDS011;6244;51.460;7.090;2022-10-15T20:50:02;1125.87;;;708.73;;
12359;SDS011;6244;51.460;7.090;2022-10-15T20:55:02;1131.03;;;714.47;;
12359;SDS011;6244;51.460;7.090;2022-10-15T21:00:00;1131.32;;;718.58;;
12359;SDS011;6244;51.460;7.090;2022-10-15T21:04:57;1126.82;;;710.00;;
12359;SDS011;6244;51.460;7.090;2022-10-15T21:09:53;1127.28;;;719.25;;
12359;SDS011;6244;51.460;7.090;2022-10-15T21:14:50;1129.33;;;719.53;;
12359;SDS011;6244;51.460;7.090;2022-10-15T21:19:48;1129.55;;;722.53;;
12359;SDS011;6244;51.460;7.090;2022-10-15T21:24:44;1126.90;;;722.85;;
12359;SDS011;6244;51.460;7.090;2022-10-15T21:29:41;1130.03;;;723.90;;
12359;SDS011;6244;51.460;7.090;2022-10-15T21:34:39;1127.43;;;714.30;;
12359;SDS011;6244;51.460;7.090;2022-10-15T21:39:39;1125.57;;;703.28;;
12359;SDS011;6244;51.460;7.090;2022-10-15T21:44:36;1127.50;;;719.20;;
12359;SDS011;6244;51.460;7.090;2022-10-15T21:49:32;1125.85;;;705.97;;
12359;SDS011;6244;51.460;7.090;2022-10-15T21:54:29;1125.97;;;703.42;;
12359;SDS011;6244;51.460;7.090;2022-10-15T21:59:27;1128.47;;;712.87;;
12359;SDS011;6244;51.460;7.090;2022-10-15T22:04:23;1124.78;;;700.58;;
12359;SDS011;6244;51.460;7.090;2022-10-15T22:09:20;1126.87;;;706.47;;
12359;SDS011;6244;51.460;7.090;2022-10-15T22:14:16;1125.47;;;701.05;;
12359;SDS011;6244;51.460;7.090;2022-10-15T22:19:14;1131.95;;;720.15;;
12359;SDS011;6244;51.460;7.090;2022-10-15T22:24:13;1125.00;;;706.20;;
12359;SDS011;6244;51.460;7.090;2022-10-15T22:29:14;1126.43;;;709.00;;
12359;SDS011;6244;51.460;7.090;2022-10-15T22:34:12;1127.17;;;711.43;;
12359;SDS011;6244;51.460;7.090;2022-10-15T22:39:12;1128.53;;;722.97;;
12359;SDS011;6244;51.460;7.090;2022-10-15T22:44:11;1129.13;;;722.88;;
12359;SDS011;6244;51.460;7.090;2022-10-15T22:49:09;1125.25;;;714.40;;
12359;SDS011;6244;51.460;7.090;2022-10-15T22:54:07;1125.78;;;711.50;;
12359;SDS011;6244;51.460;7.090;2022-10-15T22:59:04;1131.38;;;700.80;;
12359;SDS011;6244;51.460;7.090;2022-10-15T23:04:02;1123.88;;;715.75;;
12359;SDS011;6244;51.460;7.090;2022-10-15T23:09:00;1126.55;;;722.67;;
12359;SDS011;6244;51.460;7.090;2022-10-15T23:14:00;1127.83;;;694.93;;
12359;SDS011;6244;51.460;7.090;2022-10-15T23:18:58;1132.37;;;713.07;;
12359;SDS011;6244;51.460;7.090;2022-10-15T23:23:56;1129.03;;;722.47;;
12359;SDS011;6244;51.460;7.090;2022-10-15T23:28:54;1127.35;;;713.08;;
12359;SDS011;6244;51.460;7.090;2022-10-15T23:33:53;1127.27;;;715.20;;
12359;SDS011;6244;51.460;7.090;2022-10-15T23:38:51;1123.97;;;717.90;;
12359;SDS011;6244;51.460;7.090;2022-10-15T23:43:49;1124.43;;;711.20;;
12359;SDS011;6244;51.460;7.090;2022-10-15T23:48:46;1128.88;;;709.80;;
12359;SDS011;6244;51.460;7.090;2022-10-15T23:53:44;1123.78;;;712.75;;
12359;SDS011;6244;51.460;7.090;2022-10-15T23:58:41;1128.07;;;712.45;;
